Latest Weather Observations for Jervois

IDD60801

Issued at 10:41 am CST Tuesday 2 March 2021 (issued every 10 minutes, with the page automatically refreshed every 10 minutes)

About weather observations | Map of weather stations | Latest weather observations for NT | Other Formats
Station Details ID: 015602 Name: JERVOIS Lat: -22.95 Lon: 136.14 Height: 328.0 m
Data from the previous 72 hours. | See also: Recent months at Jervois
Date/Time
CST
Temp
°C
App
Temp
°C
Dew
Point
°C
Rel
Hum
%
Delta-T
°C
Wind Press
QNH
hPa
Press
MSL
hPa
Rain since
9am
mm
Dir  Spd
km/h
Gust
km/h
Spd
kts
Gust
kts
02/10:30am 35.9 33.3 3.2 13 17.3 ENE 6 9 3 5 1010.9 1008.9 0.0
02/10:00am 34.3 31.8 4.0 15 16.1 ENE 6 13 3 7 1011.1 1009.1 0.0
02/09:30am 32.5 29.5 4.3 17 14.9 ESE 9 13 5 7 1011.2 1009.2 0.0
02/09:00am 31.1 28.2 4.8 19 13.9 ESE 9 13 5 7 1011.0 1009.0 0.0
02/08:30am 29.9 27.5 5.2 21 13.1 SE 7 13 4 7 1011.0 1009.0 0.0
02/08:00am 28.1 25.8 5.6 24 11.9 SE 7 11 4 6 1011.0 1009.0 0.0
02/07:30am 26.0 23.7 5.6 27 10.6 SE 7 11 4 6 1010.9 1008.9 0.0
02/07:00am 24.7 23.2 5.0 28 10.1 SE 2 7 1 4 1010.7 1008.6 0.0
02/06:30am 24.4 21.5 4.7 28 10.0 SE 9 13 5 7 1010.1 1008.0 0.0
02/06:00am 24.3 22.3 4.6 28 10.0 SE 4 9 2 5 1009.9 1007.8 0.0
02/05:30am 24.6 21.7 4.4 27 10.2 SE 9 13 5 7 1009.5 1007.4 0.0
02/05:00am 24.6 21.7 4.4 27 10.2 SE 9 15 5 8 1009.4 1007.3 0.0
02/04:30am 24.2 21.1 3.5 26 10.3 SE 9 13 5 7 1009.2 1007.1 0.0
02/04:00am 24.5 21.7 3.2 25 10.5 SE 7 11 4 6 1009.2 1007.1 0.0
02/03:30am 24.8 21.8 2.3 23 11.0 SE 7 9 4 5 1009.2 1007.1 0.0
02/03:00am 25.5 22.2 2.2 22 11.4 SE 9 13 5 7 1009.1 1007.0 0.0
02/02:30am 25.4 22.1 2.2 22 11.4 SE 9 11 5 6 1009.4 1007.3 0.0
02/02:00am 26.2 23.3 1.5 20 12.0 SE 6 9 3 5 1009.4 1007.3 0.0
02/01:30am 27.3 24.3 1.7 19 12.6 SE 7 11 4 6 1009.5 1007.4 0.0
02/01:00am 27.4 23.6 1.8 19 12.6 SE 11 15 6 8 1009.5 1007.4 0.0
02/12:30am 27.1 23.6 1.5 19 12.5 SE 9 13 5 7 1009.8 1007.7 0.0
02/12:00am 27.5 24.5 1.8 19 12.7 SE 7 11 4 6 1010.0 1007.9 0.0
 
Date/Time
CST
Temp
°C
App
Temp
°C
Dew
Point
°C
Rel
Hum
%
Delta-T
°C
Wind Press
QNH
hPa
Press
MSL
hPa
Rain since
9am
mm
Dir  Spd
km/h
Gust
km/h
Spd
kts
Gust
kts
01/11:30pm 27.9 24.9 2.2 19 12.8 SE 7 11 4 6 1009.9 1007.8 0.0
01/11:00pm 28.3 25.3 1.7 18 13.1 SE 7 11 4 6 1009.9 1007.8 0.0
01/10:30pm 29.2 25.6 0.8 16 13.9 SE 9 11 5 6 1009.9 1007.8 0.0
01/10:00pm 29.4 25.7 0.1 15 14.2 SE 9 11 5 6 1009.8 1007.7 0.0
01/09:30pm 30.0 26.2 -0.4 14 14.7 SE 9 11 5 6 1009.6 1007.5 0.0
01/09:00pm 30.7 26.9 -0.8 13 15.2 SE 9 15 5 8 1009.4 1007.3 0.0
01/08:30pm 31.6 27.7 -1.2 12 15.8 SE 9 13 5 7 1009.2 1007.1 0.0
01/08:00pm 32.5 29.0 -1.7 11 16.4 SE 7 11 4 6 1009.0 1006.9 0.0
01/07:30pm 34.0 30.0 -1.9 10 17.4 SE 9 11 5 6 1008.8 1006.7 0.0
01/07:00pm 35.8 31.1 -2.0 9 18.4 SE 13 19 7 10 1008.4 1006.3 0.0
01/06:30pm 37.2 31.1 -2.5 8 19.4 SE 20 28 11 15 1007.9 1005.8 0.0
01/06:00pm 38.0 32.3 -3.7 7 20.1 SE 17 26 9 14 1007.8 1005.7 0.0
01/05:30pm 38.4 31.8 -3.4 7 20.3 SSE 22 35 12 19 1007.5 1005.4 0.0
01/05:00pm 38.5 31.5 -3.4 7 20.3 SSE 24 39 13 21 1007.4 1005.3 0.0
01/04:30pm 39.0 32.1 -3.0 7 20.6 SSE 24 39 13 21 1007.3 1005.2 0.0
01/04:00pm 39.2 32.3 -2.9 7 20.7 SE 24 43 13 23 1007.2 1005.1 0.0
01/03:30pm 38.9 32.7 -3.1 7 20.6 SSE 20 37 11 20 1007.5 1005.4 0.0
01/03:00pm 39.8 33.9 -2.4 7 21.0 SE 19 33 10 18 1007.9 1005.8 0.0
01/02:30pm 38.9 32.9 -1.3 8 20.3 S 20 35 11 19 1008.4 1006.3 0.0
01/02:00pm 38.2 32.4 -1.8 8 19.9 SE 19 33 10 18 1008.9 1006.8 0.0
01/01:30pm 37.8 32.3 -2.1 8 19.7 SE 17 28 9 15 1009.3 1007.2 0.0
01/01:00pm 38.7 33.3 -1.4 8 20.1 SE 17 32 9 17 1009.5 1007.4 0.0
01/12:30pm 38.0 32.0 -1.9 8 19.8 SE 20 35 11 19 1010.1 1008.0 0.0
01/12:00pm 36.7 30.9 -1.3 9 18.9 SE 19 33 10 18 1010.5 1008.4 0.0
01/11:30am 36.4 30.6 -1.5 9 18.7 SE 19 32 10 17 1010.9 1008.9 0.0
01/11:00am 35.6 29.1 -2.1 9 18.3 ESE 22 33 12 18 1011.2 1009.2 0.0
01/10:30am 35.2 29.1 0.3 11 17.6 ESE 22 30 12 16 1011.5 1009.4 0.0
01/10:00am 34.0 28.3 0.6 12 16.8 ESE 20 30 11 16 1011.7 1009.6 0.0
01/09:30am 32.8 26.8 0.8 13 16.0 ESE 22 30 12 16 1012.0 1009.9 0.0
01/09:00am 31.4 26.4 -1.4 12 15.7 SE 15 24 8 13 1011.8 1009.3 0.0
01/08:30am 29.7 24.6 -1.6 13 14.7 SE 15 24 8 13 1011.7 1009.2 0.0
01/08:00am 27.5 23.2 -1.4 15 13.4 SE 11 17 6 9 1011.6 1009.1 0.0
01/07:30am 23.7 20.3 -0.6 20 11.1 SW 7 13 4 7 1011.4 1008.9 0.0
01/07:00am 20.9 17.1 -1.0 23 9.7 SW 9 11 5 6 1010.9 1008.5 0.0
01/06:30am 19.0 15.2 -0.9 26 8.7 SW 9 13 5 7 1010.6 1008.2 0.0
01/06:00am 19.5 15.7 -1.0 25 9.0 SW 9 13 5 7 1010.5 1008.1 0.0
01/05:30am 20.0 16.1 -1.2 24 9.3 SW 9 13 5 7 1010.0 1007.6 0.0
01/05:00am 20.8 17.0 -1.1 23 9.7 SW 9 13 5 7 1009.7 1007.3 0.0
01/04:30am 20.8 17.0 -1.1 23 9.7 SE 9 13 5 7 1009.5 1007.1 0.0
01/04:00am 20.1 16.7 -0.5 25 9.2 SE 7 9 4 5 1009.5 1007.1 0.0
01/03:30am 20.7 16.9 -0.6 24 9.5 SE 9 11 5 6 1009.6 1007.2 0.0
01/03:00am 20.9 17.5 -0.4 24 9.6 SE 7 11 4 6 1009.6 1007.2 0.0
01/02:30am 21.6 18.1 -1.0 22 10.1 SE 7 9 4 5 1009.6 1007.2 0.0
01/02:00am 22.0 18.5 -1.3 21 10.4 SE 7 9 4 5 1009.8 1007.4 0.0
01/01:30am 23.2 19.6 -2.4 18 11.3 SE 7 11 4 6 1010.1 1007.7 0.0
01/01:00am 24.7 21.0 -2.8 16 12.2 SE 7 9 4 5 1010.3 1007.9 0.0
01/12:30am 24.9 21.2 -2.6 16 12.3 SE 7 9 4 5 1010.3 1007.9 0.0
01/12:00am 26.0 22.0 -2.6 15 12.9 SE 9 11 5 6 1010.5 1008.1 0.0
 
Date/Time
CST
Temp
°C
App
Temp
°C
Dew
Point
°C
Rel
Hum
%
Delta-T
°C
Wind Press
QNH
hPa
Press
MSL
hPa
Rain since
9am
mm
Dir  Spd
km/h
Gust
km/h
Spd
kts
Gust
kts
28/11:30pm 26.6 22.9 -3.1 14 13.3 SE 7 9 4 5 1010.5 1008.1 0.0
28/11:00pm 26.8 23.1 -2.9 14 13.4 SE 7 11 4 6 1010.4 1008.0 0.0
28/10:30pm 27.5 23.5 -2.3 14 13.6 SE 9 13 5 7 1010.4 1008.0 0.0
28/10:00pm 28.0 23.7 -2.0 14 13.8 SE 11 15 6 8 1010.2 1007.8 0.0
28/09:30pm 28.4 24.4 -2.6 13 14.2 SE 9 13 5 7 1010.1 1007.7 0.0
28/09:00pm 29.1 25.0 -3.2 12 14.7 SE 9 11 5 6 1009.8 1007.4 0.0
28/08:30pm 30.2 25.7 -3.5 11 15.4 SE 11 15 6 8 1009.5 1007.1 0.0
28/08:00pm 31.0 27.3 -2.9 11 15.8 SE 7 11 4 6 1009.2 1006.7 0.0
28/07:30pm 32.6 28.0 -4.3 9 17.0 SE 11 15 6 8 1008.6 1006.1 0.0
28/07:00pm 34.1 28.5 -3.2 9 17.6 SE 17 22 9 12 1008.3 1005.8 0.0
28/06:30pm 35.2 29.9 -4.0 8 18.5 SE 15 24 8 13 1008.0 1005.6 0.0
28/06:00pm 36.0 29.8 -5.2 7 19.2 SSE 19 30 10 16 1007.9 1005.5 0.0
28/05:30pm 36.6 29.8 -4.7 7 19.4 SSE 22 39 12 21 1007.8 1005.4 0.0
28/05:00pm 36.9 30.2 -4.5 7 19.6 SSE 22 35 12 19 1007.7 1005.3 0.0
28/04:30pm 37.3 31.2 -4.2 7 19.8 SSE 19 30 10 16 1007.7 1005.3 0.0
28/04:00pm 37.1 30.0 -4.4 7 19.7 SSE 24 37 13 20 1007.7 1005.3 0.0
28/03:30pm 37.4 30.3 -4.2 7 19.9 SSE 24 39 13 21 1007.9 1005.5 0.0
28/03:00pm 37.3 30.6 -4.2 7 19.8 SSE 22 39 12 21 1008.3 1005.8 0.0
28/02:30pm 37.1 30.4 -4.4 7 19.7 S 22 39 12 21 1008.7 1006.2 0.0
28/02:00pm 36.9 30.7 -4.5 7 19.6 SSE 19 32 10 17 1008.9 1006.4 0.0
28/01:30pm 36.9 31.7 -2.7 8 19.3 SE 15 32 8 17 1009.4 1007.0 0.0
28/01:00pm 35.8 30.5 -3.5 8 18.7 SSE 15 24 8 13 1009.9 1007.5 0.0
28/12:30pm 36.2 31.7 -3.3 8 18.9 S 11 24 6 13 1010.3 1007.9 0.0
28/12:00pm 35.4 30.8 -3.8 8 18.5 SSW 11 20 6 11 1010.7 1008.3 0.0
28/11:30am 34.6 30.5 -2.9 9 17.9 E 9 22 5 12 1011.2 1008.8 0.0
28/11:00am 33.8 29.6 -3.5 9 17.5 E 9 17 5 9 1011.7 1009.2 0.0
28/10:30am 33.3 28.9 -2.4 10 17.0 ESE 11 17 6 9 1012.0 1009.5 0.0
28/10:00am 31.6 26.8 -2.4 11 16.0 SE 13 20 7 11 1012.2 1009.8 0.0
28/09:30am 30.2 26.2 -2.3 12 15.2 ESE 9 13 5 7 1012.1 1009.7 0.0
28/09:00am 29.7 24.6 -1.6 13 14.7 E 15 20 8 11 1012.2 1009.8 0.0
28/08:30am 28.2 23.8 -2.8 13 14.1 SE 11 15 6 8 1011.9 1009.4 0.0
28/08:00am 24.4 22.0 0.0 20 11.4 SE 2 7 1 4 1011.7 1009.2 0.0
28/07:30am 20.6 17.3 0.4 26 9.2 SE 7 9 4 5 1011.6 1009.1 0.0
28/07:00am 19.1 15.4 -0.3 27 8.6 SE 9 11 5 6 1011.2 1008.8 0.0
28/06:30am 17.5 13.8 -0.2 30 7.8 SE 9 11 5 6 1010.9 1008.5 0.0
28/06:00am 16.6 13.3 0.3 33 7.2 SE 7 9 4 5 1010.6 1008.2 0.0
28/05:30am 16.6 13.5 -0.1 32 7.3 SE 6 7 3 4 1010.3 1007.9 0.0
28/05:00am 16.6 14.6 -0.1 32 7.3 CALM 0 0 0 0 1010.1 1007.7 0.0
28/04:30am 17.0 14.6 -0.2 31 7.5 SE 2 7 1 4 1010.0 1007.6 0.0
28/04:00am 17.1 14.3 -0.1 31 7.5 SE 4 7 2 4 1010.0 1007.6 0.0
28/03:30am 17.3 14.6 0.0 31 7.6 SE 4 6 2 3 1010.0 1007.6 0.0
28/03:00am 17.8 15.7 -0.5 29 8.0 CALM 0 0 0 0 1010.1 1007.7 0.0
28/02:30am 18.3 16.2 -1.0 27 8.4 CALM 0 0 0 0 1010.3 1007.9 0.0
28/02:00am 19.5 17.4 -0.5 26 8.9 CALM 0 0 0 0 1010.5 1008.1 0.0
28/01:30am 20.6 17.3 -1.2 23 9.6 SE 6 6 3 3 1010.6 1008.2 0.0
28/01:00am 22.6 19.2 -2.2 19 10.9 SE 6 9 3 5 1010.6 1008.2 0.0
28/12:30am 23.7 19.7 -2.0 18 11.5 SE 9 15 5 8 1010.9 1008.5 0.0
28/12:00am 24.2 20.2 -2.4 17 11.8 SE 9 13 5 7 1010.9 1008.5 0.0
 
Date/Time
CST
Temp
°C
App
Temp
°C
Dew
Point
°C
Rel
Hum
%
Delta-T
°C
Wind Press
QNH
hPa
Press
MSL
hPa
Rain since
9am
mm
Dir  Spd
km/h
Gust
km/h
Spd
kts
Gust
kts
27/11:30pm 24.6 20.3 -2.0 17 12.0 SE 11 15 6 8 1010.9 1008.5 0.0
27/11:00pm 25.3 20.9 -2.3 16 12.4 SE 11 15 6 8 1010.8 1008.4 0.0
27/10:30pm 26.0 21.6 -2.6 15 12.9 SE 11 15 6 8 1010.7 1008.3 0.0
27/10:00pm 26.6 22.1 -3.1 14 13.3 SE 11 15 6 8 1010.5 1008.1 0.0
27/09:30pm 28.0 22.8 -3.0 13 14.1 SE 15 20 8 11 1010.2 1007.8 0.0
27/09:00pm 28.4 23.5 -3.7 12 14.4 SE 13 17 7 9 1010.0 1007.6 0.0
27/08:30pm 29.3 24.3 -4.2 11 15.0 SE 13 17 7 9 1009.6 1007.2 0.0
27/08:00pm 29.3 25.1 -4.2 11 15.0 SE 9 11 5 6 1009.2 1006.7 0.0
27/07:30pm 30.9 26.7 -4.2 10 16.0 SE 9 13 5 7 1008.8 1006.3 0.0
27/07:00pm 32.5 27.5 -4.4 9 16.9 SE 13 22 7 12 1008.5 1006.0 0.0
27/06:30pm 33.6 28.5 -5.2 8 17.7 SSE 13 24 7 13 1008.2 1005.7 0.0
27/06:00pm 34.4 28.6 -4.6 8 18.1 SE 17 26 9 14 1007.9 1005.5 0.0
27/05:30pm 35.1 29.0 -4.1 8 18.4 SE 19 28 10 15 1007.8 1005.4 0.0
27/05:00pm 34.9 30.3 -4.2 8 18.3 SE 11 20 6 11 1007.6 1005.2 0.0
27/04:30pm 35.7 31.0 -5.4 7 19.0 S 11 24 6 13 1007.5 1005.1 0.0
27/04:00pm 35.7 29.8 -5.4 7 19.0 SE 17 30 9 16 1007.4 1005.0 0.0
27/03:30pm 36.2 30.4 -5.0 7 19.3 SW 17 26 9 14 1007.7 1005.3 0.0
27/03:00pm 36.1 30.3 -5.1 7 19.2 S 17 26 9 14 1008.2 1005.7 0.0
27/02:30pm 35.9 30.4 -5.2 7 19.1 SSW 15 22 8 12 1008.4 1005.9 0.0
27/02:00pm 35.1 29.2 -5.8 7 18.7 SSE 17 28 9 15 1008.7 1006.2 0.0
27/01:30pm 35.0 29.4 -5.9 7 18.7 SSE 15 28 8 15 1009.2 1006.7 0.0
27/01:00pm 34.7 30.3 -6.1 7 18.5 SE 9 15 5 8 1009.5 1007.1 0.0
27/12:30pm 34.2 29.7 -6.5 7 18.3 ESE 9 19 5 10 1010.0 1007.6 0.0
27/12:00pm 33.8 29.1 -5.0 8 17.8 SE 11 20 6 11 1010.5 1008.1 0.0
27/11:30am 33.1 28.0 -5.5 8 17.5 ESE 13 19 7 10 1010.9 1008.5 0.0
27/11:00am 32.3 26.5 -4.6 9 16.8 ESE 17 22 9 12 1011.4 1008.9 0.0

Other formats

Comma delimited format used in spreadsheet applications
http://www.bom.gov.au/fwo/IDD60801/IDD60801.94327.axf

JavaScript Object Notation format (JSON) in row-major order
http://www.bom.gov.au/fwo/IDD60801/IDD60801.94327.json

Data quality

Most of these data are generated automatically and are frequently updated. Quality checks on data are not normally performed. It is possible for incorrect values to appear. Refer to information at About Latest Weather Observations and please check the disclaimer before using these data.